Kingsgate, Washington
Current Conditions -  °F | °C
As of 8:57 AM on Saturday 20 Dec 2014 (Local Time) from KBFI Reporting Station
Light Rain Light Rain  
Wind Chill: 46°   Ceiling: 2400
Heat Index: 46°   Visibility: 2mi
Dew Point: 43°   Wind: 0mph
Humidity: 87%   Direction: NA
Pressure: 29.64"   Gusts: NA
Location:  47.7179°N, 122.204°W
Report Text: KBFI 201657Z 00000KT 2SM -RA BR BKN024 OVC030 08/06 A2964 RMK AO2 P0001
Loading
Personal Weather Stations






























Interactive Weather Map New forecast layout! Learn more

10-Day Weather Forecast

Advertisements
Track Severe Weather on mobile